createdAt,value
2018-09-15T00:00:08.605Z,12.96
2018-09-15T00:01:08.811Z,12.93
2018-09-15T00:02:08.958Z,12.95
2018-09-15T00:03:09.189Z,12.95
2018-09-15T00:04:09.359Z,12.95
2018-09-15T00:05:09.540Z,12.98
2018-09-15T00:06:09.725Z,12.99
2018-09-15T00:07:09.916Z,12.99
2018-09-15T00:08:10.062Z,13.06
2018-09-15T00:09:10.278Z,13.04
2018-09-15T00:10:10.413Z,13.02
2018-09-15T00:11:10.621Z,13.04
2018-09-15T00:12:10.777Z,13.05
2018-09-15T00:13:10.973Z,12.98
2018-09-15T00:14:11.135Z,13.05
2018-09-15T00:15:11.318Z,13.14
2018-09-15T00:16:11.493Z,13.09
2018-09-15T00:17:11.698Z,13.06
2018-09-15T00:18:11.949Z,12.95
2018-09-15T00:19:12.059Z,12.98
2018-09-15T00:20:12.253Z,12.81
2018-09-15T00:21:12.499Z,12.95
2018-09-15T00:22:12.595Z,12.98
2018-09-15T00:23:12.912Z,12.99
2018-09-15T00:24:12.949Z,13.01
2018-09-15T00:25:13.139Z,12.98
2018-09-15T00:26:13.353Z,12.87
2018-09-15T00:27:13.503Z,12.98
2018-09-15T00:28:13.686Z,12.90
2018-09-15T00:29:13.852Z,12.99
2018-09-15T00:30:14.025Z,13.01
2018-09-15T00:31:14.242Z,13.01
2018-09-15T00:32:14.423Z,13.04
2018-09-15T00:33:14.657Z,13.01
2018-09-15T00:34:14.790Z,13.02
2018-09-15T00:35:14.990Z,13.04
2018-09-15T00:36:15.162Z,12.98
2018-09-15T00:37:15.371Z,12.93
2018-09-15T00:38:15.511Z,12.88
2018-09-15T00:39:15.698Z,12.80
2018-09-15T00:40:15.913Z,12.86
2018-09-15T00:41:16.060Z,12.86
2018-09-15T00:42:16.247Z,12.83
2018-09-15T00:43:16.433Z,12.81
2018-09-15T00:44:16.640Z,12.86
2018-09-15T00:45:16.782Z,12.88
2018-09-15T00:46:16.963Z,12.81
2018-09-15T00:47:17.145Z,12.90
2018-09-15T00:48:17.330Z,12.86
2018-09-15T00:49:17.503Z,12.84
2018-09-15T00:50:17.679Z,12.84
2018-09-15T00:51:17.891Z,12.84
2018-09-15T00:52:18.080Z,12.80
2018-09-15T00:53:18.274Z,12.86
2018-09-15T00:54:18.460Z,12.86
2018-09-15T00:55:18.629Z,12.90
2018-09-15T00:56:18.811Z,12.83
2018-09-15T00:57:18.978Z,12.79
2018-09-15T00:58:19.154Z,12.91
2018-09-15T00:59:19.339Z,12.80
2018-09-15T01:00:19.543Z,12.84
2018-09-15T01:01:19.702Z,12.81
2018-09-15T01:02:19.881Z,12.84
2018-09-15T01:03:20.085Z,12.84
2018-09-15T01:04:20.315Z,12.83
2018-09-15T01:05:20.462Z,12.86
2018-09-15T01:06:20.604Z,12.79
2018-09-15T01:07:20.800Z,12.80
2018-09-15T01:08:20.957Z,12.83
2018-09-15T01:09:21.151Z,12.79
2018-09-15T01:10:21.316Z,12.83
2018-09-15T01:11:21.518Z,12.84
2018-09-15T01:12:21.665Z,12.87
2018-09-15T01:13:21.836Z,12.88
2018-09-15T01:14:22.151Z,12.86
2018-09-15T01:15:22.206Z,12.83
2018-09-15T01:16:22.421Z,12.84
2018-09-15T01:17:22.555Z,12.81
2018-09-15T01:18:22.727Z,12.77
2018-09-15T01:19:22.930Z,12.81
2018-09-15T01:20:23.160Z,12.83
2018-09-15T01:21:23.369Z,12.87
2018-09-15T01:22:23.524Z,12.87
2018-09-15T01:23:23.705Z,12.81
2018-09-15T01:24:23.883Z,12.83
2018-09-15T01:25:24.061Z,12.76
2018-09-15T01:26:24.271Z,12.69
2018-09-15T01:27:24.481Z,12.63
2018-09-15T01:28:24.658Z,12.53
2018-09-15T01:29:24.846Z,12.54
2018-09-15T01:30:25.024Z,12.51
2018-09-15T01:31:25.233Z,12.48
2018-09-15T01:32:25.456Z,12.48
2018-09-15T01:33:25.597Z,12.36
2018-09-15T01:34:25.784Z,12.33
2018-09-15T01:35:25.963Z,12.17
2018-09-15T01:36:26.132Z,12.15
2018-09-15T01:37:26.314Z,12.10
2018-09-15T01:38:26.500Z,12.14
2018-09-15T01:39:26.683Z,12.07
2018-09-15T01:40:26.895Z,12.07
2018-09-15T01:41:27.014Z,12.08
2018-09-15T01:42:27.200Z,12.04
2018-09-15T01:43:27.389Z,11.99
2018-09-15T01:44:27.561Z,12.03
2018-09-15T01:45:27.744Z,12.03
2018-09-15T01:46:27.930Z,12.03
2018-09-15T01:47:28.081Z,12.00
2018-09-15T01:48:28.281Z,11.93
2018-09-15T01:49:28.496Z,12.03
2018-09-15T01:50:28.693Z,12.03
2018-09-15T01:51:28.873Z,12.03
2018-09-15T01:52:29.065Z,11.97
2018-09-15T01:53:29.231Z,11.93
2018-09-15T01:54:29.417Z,11.95
2018-09-15T01:55:29.598Z,11.89
2018-09-15T01:56:29.776Z,11.91
2018-09-15T01:57:30.049Z,11.93
2018-09-15T01:58:30.132Z,11.88
2018-09-15T01:59:30.350Z,11.84
2018-09-15T02:00:30.487Z,11.84
2018-09-15T02:01:30.665Z,11.76
2018-09-15T02:02:30.844Z,11.67
2018-09-15T02:03:31.024Z,11.70
2018-09-15T02:04:31.230Z,11.66
2018-09-15T02:05:31.405Z,11.77
2018-09-15T02:06:31.561Z,11.67
2018-09-15T02:07:31.754Z,11.67
2018-09-15T02:08:31.906Z,11.71
2018-09-15T02:09:32.112Z,11.71
2018-09-15T02:10:32.299Z,11.73
2018-09-15T02:11:32.496Z,11.71
2018-09-15T02:12:32.652Z,11.67
2018-09-15T02:13:32.836Z,11.56
2018-09-15T02:14:33.056Z,11.64
2018-09-15T02:15:33.225Z,11.67
2018-09-15T02:16:33.482Z,11.67
2018-09-15T02:17:33.607Z,11.69
2018-09-15T02:18:33.800Z,11.67
2018-09-15T02:19:34.003Z,11.66
2018-09-15T02:20:34.175Z,11.69
2018-09-15T02:21:34.358Z,11.66
2018-09-15T02:22:34.608Z,11.70
2018-09-15T02:23:34.715Z,11.70
2018-09-15T02:24:34.935Z,11.61
2018-09-15T02:25:35.086Z,11.71
2018-09-15T02:26:35.271Z,11.73
2018-09-15T02:27:35.482Z,11.62
2018-09-15T02:28:35.626Z,11.70
2018-09-15T02:29:35.838Z,11.73
2018-09-15T02:30:35.971Z,11.77
2018-09-15T02:31:36.144Z,11.82
2018-09-15T02:32:36.402Z,11.79
2018-09-15T02:33:36.554Z,11.84
2018-09-15T02:34:36.720Z,11.88
2018-09-15T02:37:19.628Z,11.89
2018-09-15T02:38:19.786Z,12.08
2018-09-15T02:39:19.985Z,12.08
2018-09-15T02:40:20.194Z,11.91
2018-09-15T02:41:20.428Z,11.97
2018-09-15T02:42:20.609Z,12.05
2018-09-15T02:43:20.756Z,12.10
2018-09-15T02:44:20.902Z,12.13
2018-09-15T02:45:21.097Z,12.23
2018-09-15T02:46:21.280Z,12.25
2018-09-15T02:47:21.455Z,12.26
2018-09-15T02:48:21.663Z,12.33
2018-09-15T02:49:21.905Z,12.29
2018-09-15T02:50:22.015Z,12.36
2018-09-15T02:51:22.164Z,12.40
2018-09-15T02:52:22.341Z,12.36
2018-09-15T02:53:22.530Z,12.33
2018-09-15T02:54:22.700Z,12.47
2018-09-15T02:57:05.576Z,12.47
2018-09-15T02:58:05.746Z,12.40
2018-09-15T02:59:05.917Z,12.36
2018-09-15T03:00:06.114Z,12.28
2018-09-15T03:01:06.284Z,12.26
2018-09-15T03:02:06.509Z,12.26
2018-09-15T03:03:06.651Z,12.22
2018-09-15T03:04:06.829Z,12.26
2018-09-15T03:05:07.002Z,12.08
2018-09-15T03:06:07.261Z,12.13
2018-09-15T03:07:07.356Z,12.00
2018-09-15T03:08:07.536Z,12.00
2018-09-15T03:09:07.725Z,11.97
2018-09-15T03:10:07.926Z,11.91
2018-09-15T03:11:08.101Z,11.74
2018-09-15T03:12:08.276Z,11.69
2018-09-15T03:13:08.445Z,11.61
2018-09-15T03:14:08.641Z,11.52
2018-09-15T03:15:08.829Z,11.52
2018-09-15T03:16:09.062Z,11.51
2018-09-15T03:17:09.225Z,11.48
2018-09-15T03:18:09.385Z,11.51
2018-09-15T03:19:09.565Z,11.43
2018-09-15T03:20:09.757Z,11.46
2018-09-15T03:21:09.945Z,11.48
2018-09-15T03:22:10.155Z,11.55
2018-09-15T03:23:10.361Z,11.52
2018-09-15T03:24:10.438Z,11.61
2018-09-15T03:25:10.608Z,11.55
2018-09-15T03:26:10.804Z,11.59
2018-09-15T03:27:10.986Z,11.58
2018-09-15T03:28:11.134Z,11.71
2018-09-15T03:29:11.330Z,11.73
2018-09-15T03:30:11.504Z,11.71
2018-09-15T03:31:11.710Z,11.67
2018-09-15T03:32:11.874Z,11.66
2018-09-15T03:33:12.040Z,11.46
2018-09-15T03:34:12.239Z,11.23
2018-09-15T03:35:12.458Z,11.20
2018-09-15T03:36:12.580Z,11.16
2018-09-15T03:37:12.755Z,11.15
2018-09-15T03:38:12.962Z,11.01
2018-09-15T03:39:13.246Z,11.05
2018-09-15T03:40:13.361Z,11.03
2018-09-15T03:41:13.529Z,11.03
2018-09-15T03:42:13.717Z,11.00
2018-09-15T03:43:13.898Z,10.90
2018-09-15T03:44:14.084Z,10.95
2018-09-15T03:45:14.293Z,10.90
2018-09-15T03:46:14.439Z,10.98
2018-09-15T03:47:14.657Z,10.90
2018-09-15T03:48:14.790Z,10.87
2018-09-15T03:49:14.984Z,10.87
2018-09-15T03:50:15.168Z,10.95
2018-09-15T03:51:15.359Z,10.90
2018-09-15T03:52:15.555Z,10.90
2018-09-15T03:53:15.758Z,10.75
2018-09-15T03:54:15.958Z,10.76
2018-09-15T03:55:16.070Z,10.75
2018-09-15T03:56:16.315Z,10.68
2018-09-15T03:57:16.527Z,10.76
2018-09-15T03:58:16.600Z,10.64
2018-09-15T03:59:16.780Z,10.67
2018-09-15T04:00:16.963Z,10.55
2018-09-15T04:01:17.136Z,10.49
2018-09-15T04:02:17.322Z,10.55
2018-09-15T04:03:17.483Z,10.54
2018-09-15T04:04:17.701Z,10.43
2018-09-15T04:05:17.883Z,10.48
2018-09-15T04:06:18.047Z,10.49
2018-09-15T04:07:18.249Z,10.43
2018-09-15T04:08:18.424Z,10.48
2018-09-15T04:09:18.608Z,10.30
2018-09-15T04:10:18.791Z,10.20
2018-09-15T04:11:18.946Z,10.30
2018-09-15T04:12:19.199Z,10.26
2018-09-15T04:13:19.300Z,10.31
2018-09-15T04:14:19.496Z,10.31
2018-09-15T04:15:19.651Z,10.30
2018-09-15T04:16:19.837Z,10.24
2018-09-15T04:17:20.069Z,10.20
2018-09-15T04:18:20.262Z,10.20
2018-09-15T04:19:20.439Z,10.16
2018-09-15T04:20:20.658Z,10.17
2018-09-15T04:21:20.774Z,10.12
2018-09-15T04:22:20.951Z,10.12
2018-09-15T04:23:21.128Z,10.08
2018-09-15T04:24:21.310Z,9.93
2018-09-15T04:25:21.475Z,10.06
2018-09-15T04:26:21.672Z,10.01
2018-09-15T04:27:21.822Z,10.01
2018-09-15T04:28:21.986Z,9.98
2018-09-15T04:29:22.155Z,9.96
2018-09-15T04:30:22.332Z,9.96
2018-09-15T04:31:22.516Z,9.90
2018-09-15T04:32:22.718Z,9.98
2018-09-15T04:33:22.868Z,9.87
2018-09-15T04:34:23.081Z,9.91
2018-09-15T04:35:23.249Z,9.91
2018-09-15T04:36:23.459Z,9.88
2018-09-15T04:37:23.613Z,9.93
2018-09-15T04:38:23.860Z,9.91
2018-09-15T04:39:23.990Z,9.87
2018-09-15T04:40:24.163Z,9.90
2018-09-15T04:41:24.337Z,9.88
2018-09-15T04:42:24.519Z,9.90
2018-09-15T04:43:24.710Z,9.93
2018-09-15T04:44:24.923Z,9.87
2018-09-15T04:45:25.048Z,9.91
2018-09-15T04:46:25.233Z,9.88
2018-09-15T04:47:25.414Z,9.87
2018-09-15T04:48:25.614Z,9.84
2018-09-15T04:49:25.808Z,9.84
2018-09-15T04:50:25.925Z,9.85
2018-09-15T04:51:26.133Z,9.90
2018-09-15T04:52:26.338Z,9.84
2018-09-15T04:53:26.554Z,9.83
2018-09-15T04:54:26.625Z,9.91
2018-09-15T04:55:26.815Z,9.87
2018-09-15T04:56:26.987Z,9.96
2018-09-15T04:57:27.248Z,9.96
2018-09-15T04:58:27.420Z,9.98
2018-09-15T04:59:27.729Z,9.90
2018-09-15T05:00:27.787Z,9.91
2018-09-15T05:01:27.912Z,10.01
2018-09-15T05:02:28.142Z,9.99
2018-09-15T05:03:28.279Z,9.93
2018-09-15T05:04:28.478Z,9.98
2018-09-15T05:05:28.629Z,9.87
2018-09-15T05:06:28.862Z,9.96
2018-09-15T05:07:28.996Z,9.93
2018-09-15T05:08:29.154Z,9.94
2018-09-15T05:09:29.334Z,9.90
2018-09-15T05:10:29.515Z,9.88
2018-09-15T05:11:29.725Z,9.93
2018-09-15T05:12:29.945Z,9.91
2018-09-15T05:13:30.049Z,9.93
2018-09-15T05:14:30.242Z,9.99
2018-09-15T05:15:30.406Z,10.03
2018-09-15T05:16:30.605Z,9.91
2018-09-15T05:17:30.768Z,9.99
2018-09-15T05:18:30.936Z,9.96
2018-09-15T05:19:31.117Z,9.93
2018-09-15T05:20:31.303Z,10.05
2018-09-15T05:21:31.449Z,10.06
2018-09-15T05:22:31.687Z,10.08
2018-09-15T05:23:31.807Z,10.03
2018-09-15T05:24:31.974Z,10.12
2018-09-15T05:25:32.177Z,10.14
2018-09-15T05:26:32.402Z,10.21
2018-09-15T05:27:32.497Z,10.20
2018-09-15T05:28:32.699Z,10.23
2018-09-15T05:29:32.875Z,10.38
2018-09-15T05:30:33.051Z,10.36
2018-09-15T05:31:33.297Z,10.46
2018-09-15T05:32:33.408Z,10.41
2018-09-15T05:33:33.664Z,10.43
2018-09-15T05:34:33.791Z,10.52
2018-09-15T05:35:33.954Z,10.68
2018-09-15T05:36:34.135Z,10.87
2018-09-15T05:37:34.313Z,11.04
2018-09-15T05:38:34.506Z,11.16
2018-09-15T05:39:34.682Z,11.33
2018-09-15T05:40:34.820Z,11.46
2018-09-15T05:41:35.064Z,11.59
2018-09-15T05:42:35.168Z,11.69
2018-09-15T05:43:35.344Z,11.88
2018-09-15T05:44:35.538Z,11.91
2018-09-15T05:45:35.710Z,12.21
2018-09-15T05:46:35.889Z,12.50
2018-09-15T05:47:36.113Z,12.73
2018-09-15T05:48:36.253Z,12.95
2018-09-15T05:49:36.465Z,13.08
2018-09-15T05:50:36.607Z,13.26
2018-09-15T05:51:36.786Z,13.39
2018-09-15T05:52:36.983Z,13.51
2018-09-15T05:53:37.161Z,13.63
2018-09-15T05:54:37.369Z,13.67
2018-09-15T05:55:37.553Z,13.49
2018-09-15T05:56:37.754Z,13.57
2018-09-15T05:57:38.597Z,13.90
2018-09-15T05:58:38.154Z,14.08
2018-09-15T05:59:38.340Z,14.37
2018-09-15T06:00:38.599Z,14.53
2018-09-15T06:01:38.778Z,14.49
2018-09-15T06:02:38.887Z,14.70
2018-09-15T06:03:39.069Z,14.78
2018-09-15T06:04:39.266Z,15.03
2018-09-15T06:05:39.429Z,15.41
2018-09-15T06:06:39.638Z,15.56
2018-09-15T06:07:39.863Z,15.32
2018-09-15T06:08:39.989Z,15.27
2018-09-15T06:09:40.175Z,14.95
2018-09-15T06:10:40.354Z,14.67
2018-09-15T06:11:40.544Z,14.59
2018-09-15T06:12:40.743Z,14.77
2018-09-15T06:13:40.976Z,15.12
2018-09-15T06:14:41.101Z,15.23
2018-09-15T06:15:41.313Z,15.47
2018-09-15T06:16:41.472Z,15.63
2018-09-15T06:17:41.657Z,15.88
2018-09-15T06:18:41.871Z,15.77
2018-09-15T06:19:42.028Z,15.51
2018-09-15T06:20:42.196Z,15.25
2018-09-15T06:21:42.384Z,15.11
2018-09-15T06:22:42.566Z,15.26
2018-09-15T06:23:42.738Z,15.07
2018-09-15T06:24:42.934Z,15.25
2018-09-15T06:25:43.117Z,15.43
2018-09-15T06:26:43.301Z,15.27
2018-09-15T06:27:43.486Z,15.25
2018-09-15T06:28:43.676Z,14.95
2018-09-15T06:29:43.883Z,14.79
2018-09-15T06:30:44.047Z,14.67
2018-09-15T06:31:44.229Z,14.77
2018-09-15T06:32:44.414Z,14.78
2018-09-15T06:33:44.597Z,15.01
2018-09-15T06:34:44.782Z,15.25
2018-09-15T06:35:44.967Z,15.27
2018-09-15T06:36:45.156Z,15.45
2018-09-15T06:37:45.341Z,15.32
2018-09-15T06:38:45.523Z,15.32
2018-09-15T06:39:45.712Z,14.99
2018-09-15T06:40:45.887Z,14.90
2018-09-15T06:41:46.102Z,14.69
2018-09-15T06:42:46.263Z,14.97
2018-09-15T06:43:46.467Z,15.27
2018-09-15T06:44:46.637Z,15.36
2018-09-15T06:45:46.855Z,15.52
2018-09-15T06:46:47.009Z,15.66
2018-09-15T06:47:47.209Z,15.68
2018-09-15T06:48:47.373Z,15.59
2018-09-15T06:49:47.564Z,15.36
2018-09-15T06:50:47.748Z,15.43
2018-09-15T06:51:47.934Z,15.45
2018-09-15T06:52:48.111Z,15.62
2018-09-15T06:53:48.369Z,15.62
2018-09-15T06:54:48.481Z,15.56
2018-09-15T06:55:48.663Z,15.63
2018-09-15T06:56:48.855Z,15.63
2018-09-15T06:57:49.034Z,15.85
2018-09-15T06:58:49.223Z,16.03
2018-09-15T06:59:49.407Z,16.18
2018-09-15T07:00:49.622Z,16.18
2018-09-15T07:01:49.780Z,16.02
2018-09-15T07:02:49.967Z,16.34
2018-09-15T07:03:50.144Z,16.58
2018-09-15T07:04:50.329Z,16.62
2018-09-15T07:05:50.519Z,16.73
2018-09-15T07:06:50.691Z,16.65
2018-09-15T07:07:50.879Z,16.73
2018-09-15T07:08:51.066Z,16.94
2018-09-15T07:09:51.256Z,17.06
2018-09-15T07:10:51.447Z,17.12
2018-09-15T07:11:51.637Z,16.88
2018-09-15T07:12:51.875Z,17.27
2018-09-15T07:13:52.001Z,17.56
2018-09-15T07:14:52.190Z,17.78
2018-09-15T07:15:52.385Z,17.96
2018-09-15T07:16:52.566Z,17.83
2018-09-15T07:17:52.753Z,17.83
2018-09-15T07:18:52.945Z,17.50
2018-09-15T07:19:53.142Z,17.25
2018-09-15T07:20:53.319Z,17.01
2018-09-15T07:21:53.505Z,16.57
2018-09-15T07:22:53.695Z,16.36
2018-09-15T07:23:53.874Z,15.96
2018-09-15T07:24:54.060Z,15.85
2018-09-15T07:25:54.304Z,16.05
2018-09-15T07:26:54.429Z,16.40
2018-09-15T07:27:54.617Z,16.54
2018-09-15T07:28:54.803Z,16.39
2018-09-15T07:29:54.992Z,16.22
2018-09-15T07:30:55.184Z,16.16
2018-09-15T07:31:55.422Z,16.13
2018-09-15T07:32:55.545Z,16.29
2018-09-15T07:33:55.722Z,16.21
2018-09-15T07:34:55.967Z,16.36
2018-09-15T07:35:56.090Z,16.62
2018-09-15T07:36:56.271Z,16.58
2018-09-15T07:37:56.453Z,16.88
2018-09-15T07:38:56.647Z,17.12
2018-09-15T07:39:56.833Z,17.25
2018-09-15T07:40:57.022Z,17.19
2018-09-15T07:41:57.207Z,17.39
2018-09-15T07:42:57.396Z,17.63
2018-09-15T07:43:57.585Z,17.79
2018-09-15T07:44:57.777Z,17.76
2018-09-15T07:45:57.963Z,17.90
2018-09-15T07:46:58.137Z,17.97
2018-09-15T07:49:41.043Z,18.21
2018-09-15T07:50:41.213Z,18.23
2018-09-15T07:51:41.444Z,18.15
2018-09-15T07:52:41.600Z,18.17
2018-09-15T07:53:41.793Z,18.17
2018-09-15T07:54:41.990Z,18.23
2018-09-15T07:55:42.159Z,18.30
2018-09-15T07:56:42.344Z,18.20
2018-09-15T07:57:42.600Z,18.26
2018-09-15T07:58:42.719Z,18.28
2018-09-15T07:59:42.907Z,18.42
2018-09-15T08:00:43.105Z,18.24
2018-09-15T08:01:43.285Z,18.33
2018-09-15T08:02:43.470Z,18.41
2018-09-15T08:03:43.682Z,18.43
2018-09-15T08:04:43.844Z,18.57
2018-09-15T08:05:44.063Z,18.60
2018-09-15T08:06:44.232Z,18.28
2018-09-15T08:07:44.396Z,18.28
2018-09-15T08:08:44.585Z,18.17
2018-09-15T08:09:44.783Z,18.23
2018-09-15T08:10:44.970Z,18.26
2018-09-15T08:11:45.196Z,18.57
2018-09-15T08:12:45.341Z,18.93
2018-09-15T08:13:45.559Z,19.13
2018-09-15T08:14:45.709Z,19.17
2018-09-15T08:15:45.896Z,19.09
2018-09-15T08:16:46.089Z,19.01
2018-09-15T08:17:46.281Z,19.12
2018-09-15T08:18:46.460Z,19.15
2018-09-15T08:19:46.648Z,18.76
2018-09-15T08:20:46.912Z,18.82
2018-09-15T08:21:47.022Z,18.61
2018-09-15T08:22:47.201Z,18.74
2018-09-15T08:23:47.439Z,18.89
2018-09-15T08:24:47.565Z,18.66
2018-09-15T08:25:47.777Z,18.60
2018-09-15T08:26:47.967Z,18.46
2018-09-15T08:27:48.176Z,18.52
2018-09-15T08:28:48.358Z,18.76
2018-09-15T08:29:48.582Z,19.00
2018-09-15T08:30:48.735Z,19.00
2018-09-15T08:31:48.965Z,19.05
2018-09-15T08:32:49.141Z,19.12
2018-09-15T08:33:49.298Z,18.79
2018-09-15T08:34:49.491Z,18.71
2018-09-15T08:35:49.679Z,18.94
2018-09-15T08:36:49.867Z,18.89
2018-09-15T08:37:50.053Z,18.93
2018-09-15T08:38:50.239Z,19.12
2018-09-15T08:39:50.424Z,19.07
2018-09-15T08:40:50.609Z,18.97
2018-09-15T08:41:50.796Z,19.31
2018-09-15T08:42:50.981Z,19.44
2018-09-15T08:43:51.169Z,19.59
2018-09-15T08:44:51.357Z,19.57
2018-09-15T08:45:51.572Z,19.74
2018-09-15T08:46:51.726Z,19.79
2018-09-15T08:47:51.920Z,19.60
2018-09-15T08:48:52.111Z,19.74
2018-09-15T08:49:52.310Z,19.44
2018-09-15T08:50:52.491Z,19.45
2018-09-15T08:51:52.680Z,19.56
2018-09-15T08:52:52.867Z,19.67
2018-09-15T08:53:53.067Z,19.52
2018-09-15T08:54:53.275Z,19.52
2018-09-15T08:55:53.444Z,19.84
2018-09-15T08:56:53.634Z,19.97
2018-09-15T08:57:53.822Z,19.94
2018-09-15T08:58:54.012Z,19.72
2018-09-15T08:59:54.199Z,19.52
2018-09-15T09:00:54.390Z,19.54
2018-09-15T09:01:54.573Z,19.74
2018-09-15T09:02:54.762Z,19.89
2018-09-15T09:03:54.959Z,20.22
2018-09-15T09:04:55.140Z,20.37
2018-09-15T09:05:55.331Z,20.55
2018-09-15T09:06:55.520Z,20.55
2018-09-15T09:07:55.715Z,20.50
2018-09-15T09:08:55.891Z,20.71
2018-09-15T09:09:56.086Z,20.73
2018-09-15T09:10:56.278Z,20.60
2018-09-15T09:11:56.456Z,20.42
2018-09-15T09:12:56.637Z,20.29
2018-09-15T09:13:56.835Z,20.09
2018-09-15T09:14:57.014Z,20.15
2018-09-15T09:15:57.223Z,20.26
2018-09-15T09:16:57.406Z,20.22
2018-09-15T09:17:57.627Z,20.25
2018-09-15T09:18:57.808Z,20.29
2018-09-15T09:19:57.982Z,20.23
2018-09-15T09:20:58.153Z,20.36
2018-09-15T09:21:58.346Z,20.46
2018-09-15T09:22:58.546Z,20.37
2018-09-15T09:23:58.730Z,20.61
2018-09-15T09:24:58.920Z,20.58
2018-09-15T09:25:59.222Z,20.55
2018-09-15T09:26:59.298Z,20.42
2018-09-15T09:27:59.500Z,20.26
2018-09-15T09:28:59.662Z,19.99
2018-09-15T09:29:59.857Z,19.93
2018-09-15T09:31:00.045Z,20.05
2018-09-15T09:32:00.223Z,19.64
2018-09-15T09:33:00.412Z,19.90
2018-09-15T09:34:00.594Z,19.96
2018-09-15T09:35:00.770Z,19.89
2018-09-15T09:36:00.973Z,19.64
2018-09-15T09:37:01.160Z,19.62
2018-09-15T09:38:01.351Z,19.84
2018-09-15T09:39:01.540Z,19.97
2018-09-15T09:40:01.729Z,20.19
2018-09-15T09:41:01.922Z,20.12
2018-09-15T09:42:02.105Z,19.75
2018-09-15T09:43:02.316Z,19.34
2018-09-15T09:44:02.499Z,19.32
2018-09-15T09:45:02.707Z,19.53
2018-09-15T09:46:02.872Z,19.49
2018-09-15T09:47:03.059Z,19.39
2018-09-15T09:48:03.341Z,19.64
2018-09-15T09:49:03.441Z,19.77
2018-09-15T09:50:03.617Z,19.97
2018-09-15T09:51:03.832Z,20.22
2018-09-15T09:52:04.017Z,20.42
2018-09-15T09:53:04.202Z,20.33
2018-09-15T09:54:04.384Z,20.18
2018-09-15T09:55:04.573Z,19.56
2018-09-15T09:56:04.775Z,19.13
2018-09-15T09:57:04.951Z,18.78
2018-09-15T09:58:05.123Z,18.78
2018-09-15T09:59:05.310Z,18.89
2018-09-15T10:00:05.500Z,19.20
2018-09-15T10:01:05.698Z,19.34
2018-09-15T10:02:05.880Z,19.50
2018-09-15T10:03:06.072Z,19.56
2018-09-15T10:04:06.265Z,19.81
2018-09-15T10:05:06.457Z,20.09
2018-09-15T10:06:06.642Z,20.00
2018-09-15T10:07:06.917Z,19.94
2018-09-15T10:08:07.012Z,19.67
2018-09-15T10:09:07.203Z,19.64
2018-09-15T10:10:07.457Z,19.84
2018-09-15T10:11:07.572Z,20.04
2018-09-15T10:12:07.750Z,20.18
2018-09-15T10:13:07.945Z,20.44
2018-09-15T10:14:08.131Z,20.64
2018-09-15T10:15:08.327Z,20.83
2018-09-15T10:16:08.562Z,20.92
2018-09-15T10:17:08.710Z,20.74
2018-09-15T10:18:08.891Z,20.75
2018-09-15T10:19:09.103Z,20.56
2018-09-15T10:20:09.290Z,20.52
2018-09-15T10:21:09.473Z,20.49
2018-09-15T10:22:09.663Z,20.55
2018-09-15T10:23:09.841Z,20.63
2018-09-15T10:24:10.040Z,20.67
2018-09-15T10:25:10.238Z,20.64
2018-09-15T10:26:10.414Z,20.83
2018-09-15T10:27:10.601Z,20.83
2018-09-15T10:28:10.787Z,20.85
2018-09-15T10:29:10.976Z,20.98
2018-09-15T10:30:11.184Z,21.11
2018-09-15T10:31:11.360Z,21.11
2018-09-15T10:32:11.575Z,21.10
2018-09-15T10:33:11.723Z,21.18
2018-09-15T10:34:11.912Z,21.11
2018-09-15T10:35:12.097Z,21.13
2018-09-15T10:36:12.290Z,21.19
2018-09-15T10:37:12.503Z,21.32
2018-09-15T10:38:12.651Z,21.20
2018-09-15T10:39:12.851Z,21.13
2018-09-15T10:40:13.038Z,21.03
2018-09-15T10:41:13.218Z,21.00
2018-09-15T10:42:13.410Z,20.98
2018-09-15T10:43:13.597Z,21.11
2018-09-15T10:44:13.784Z,21.26
2018-09-15T10:45:13.981Z,21.35
2018-09-15T10:46:14.181Z,21.25
2018-09-15T10:47:14.356Z,21.35
2018-09-15T10:48:14.548Z,21.60
2018-09-15T10:49:14.732Z,21.66
2018-09-15T10:50:14.921Z,21.88
2018-09-15T10:51:15.107Z,21.85
2018-09-15T10:52:15.300Z,21.65
2018-09-15T10:53:15.475Z,21.66
2018-09-15T10:54:15.676Z,21.71
2018-09-15T10:55:15.861Z,21.55
2018-09-15T10:56:16.043Z,21.53
2018-09-15T10:57:16.218Z,21.59
2018-09-15T10:58:16.418Z,21.20
2018-09-15T10:59:16.590Z,21.08
2018-09-15T11:00:16.819Z,20.97
2018-09-15T11:01:16.962Z,20.70
2018-09-15T11:02:17.157Z,20.49
2018-09-15T11:03:17.338Z,20.42
2018-09-15T11:04:17.527Z,20.65
2018-09-15T11:05:17.716Z,20.93
2018-09-15T11:06:17.924Z,21.16
2018-09-15T11:07:18.080Z,21.20
2018-09-15T11:08:18.263Z,21.08
2018-09-15T11:09:18.449Z,20.75
2018-09-15T11:10:18.640Z,20.64
2018-09-15T11:11:18.829Z,20.58
2018-09-15T11:12:19.016Z,20.32
2018-09-15T11:13:19.257Z,20.27
2018-09-15T11:14:19.383Z,20.14
2018-09-15T11:15:19.578Z,20.26
2018-09-15T11:16:19.799Z,20.55
2018-09-15T11:17:19.947Z,20.75
2018-09-15T11:18:20.131Z,20.93
2018-09-15T11:19:20.322Z,21.00
2018-09-15T11:20:20.515Z,21.18
2018-09-15T11:21:20.694Z,21.08
2018-09-15T11:22:20.944Z,20.86
2018-09-15T11:23:21.073Z,20.73
2018-09-15T11:24:21.265Z,20.65
2018-09-15T11:25:21.467Z,20.63
2018-09-15T11:26:21.624Z,20.52
2018-09-15T11:27:21.828Z,20.48
2018-09-15T11:28:21.980Z,20.27
2018-09-15T11:29:22.157Z,20.18
2018-09-15T11:30:22.342Z,20.00
2018-09-15T11:31:22.530Z,20.09
2018-09-15T11:32:22.715Z,20.00
2018-09-15T11:33:22.913Z,19.97
2018-09-15T11:34:23.087Z,20.08
2018-09-15T11:35:23.280Z,20.09
2018-09-15T11:36:23.538Z,20.12
2018-09-15T11:37:23.694Z,20.25
2018-09-15T11:38:23.897Z,20.49
2018-09-15T11:39:24.071Z,20.56
2018-09-15T11:40:24.259Z,20.27
2018-09-15T11:41:24.452Z,20.23
2018-09-15T11:42:24.637Z,20.14
2018-09-15T11:43:24.830Z,20.12
2018-09-15T11:44:25.013Z,20.19
2018-09-15T11:45:25.197Z,20.36
2018-09-15T11:46:25.377Z,20.34
2018-09-15T11:47:25.565Z,20.25
2018-09-15T11:48:25.750Z,20.34
2018-09-15T11:49:25.940Z,20.42
2018-09-15T11:50:26.122Z,20.37
2018-09-15T11:51:26.305Z,20.67
2018-09-15T11:52:26.492Z,20.79
2018-09-15T11:53:26.680Z,20.89
2018-09-15T11:54:26.855Z,20.95
2018-09-15T11:55:27.044Z,21.14
2018-09-15T11:56:27.245Z,21.10
2018-09-15T11:57:27.420Z,21.03
2018-09-15T11:58:27.609Z,20.93
2018-09-15T11:59:27.829Z,20.92
2018-09-15T12:00:27.983Z,20.77
2018-09-15T12:01:28.166Z,20.85
2018-09-15T12:02:28.351Z,20.90
2018-09-15T12:03:28.540Z,21.00
2018-09-15T12:04:28.734Z,21.04
2018-09-15T12:05:28.926Z,20.89
2018-09-15T12:06:29.111Z,20.83
2018-09-15T12:07:29.305Z,20.53
2018-09-15T12:08:29.485Z,20.74
2018-09-15T12:09:29.673Z,20.92
2018-09-15T12:10:29.865Z,21.00
2018-09-15T12:11:30.066Z,20.93
2018-09-15T12:12:30.229Z,20.86
2018-09-15T12:13:30.432Z,20.68
2018-09-15T12:14:30.604Z,20.71
2018-09-15T12:15:30.806Z,20.73
2018-09-15T12:16:31.030Z,20.79
2018-09-15T12:17:31.185Z,20.82
2018-09-15T12:18:31.376Z,20.79
2018-09-15T12:19:31.562Z,20.65
2018-09-15T12:20:31.754Z,20.65
2018-09-15T12:21:31.974Z,20.64
2018-09-15T12:22:32.132Z,20.77
2018-09-15T12:23:32.314Z,21.04
2018-09-15T12:24:32.502Z,21.03
2018-09-15T12:25:32.683Z,21.03
2018-09-15T12:26:32.878Z,21.00
2018-09-15T12:27:33.080Z,21.10
2018-09-15T12:28:33.266Z,21.16
2018-09-15T12:29:33.459Z,21.26
2018-09-15T12:30:33.640Z,21.11
2018-09-15T12:31:33.828Z,20.98
2018-09-15T12:32:34.037Z,21.04
2018-09-15T12:33:34.259Z,20.92
2018-09-15T12:34:34.403Z,20.88
2018-09-15T12:35:34.590Z,20.89
2018-09-15T12:36:34.783Z,20.79
2018-09-15T12:37:34.974Z,20.82
2018-09-15T12:38:35.159Z,20.90
2018-09-15T12:39:35.400Z,20.92
2018-09-15T12:40:35.537Z,20.90
2018-09-15T12:41:35.718Z,20.80
2018-09-15T12:42:35.912Z,20.64
2018-09-15T12:43:36.096Z,20.63
2018-09-15T12:44:36.289Z,20.49
2018-09-15T12:45:36.484Z,20.55
2018-09-15T12:46:36.665Z,20.61
2018-09-15T12:47:36.860Z,20.58
2018-09-15T12:48:37.054Z,20.55
2018-09-15T12:49:37.248Z,20.64
2018-09-15T12:50:37.435Z,20.60
2018-09-15T12:51:37.617Z,20.67
2018-09-15T12:52:37.791Z,20.77
2018-09-15T12:53:37.967Z,20.65
2018-09-15T12:54:38.166Z,20.75
2018-09-15T12:55:38.415Z,20.80
2018-09-15T12:56:38.530Z,20.68
2018-09-15T12:57:38.751Z,20.77
2018-09-15T12:58:38.908Z,20.83
2018-09-15T12:59:39.108Z,20.71
2018-09-15T13:00:39.294Z,20.63
2018-09-15T13:01:39.499Z,20.65